NRMO2: Lake Thunderbird

Data processed at Wed Jun 19 2019 23:50


All information presented herein is the property of the government of the United States of America and may be revised or deleted at any time without prior notice.
Dissemination of this information without the expressed written consent of the Public Affairs Office, Tulsa District U.S. Army Corps of Engineers is strictly prohibited.
These data are gathered electronically and, as presented, have not undergone any form of quality control. These data are not guaranteed to be valid or correct.
Go to home page.
Go to station list.
Go to home page.

Upstream stations:

Downstream station:
Previous Day
Next Day
Current Day
    
SHEF ID:       NRMO2     Lake Thunderbird
STATION TYPE:  RESERVOIR
Flood Pool:  Bottom =  1039.00, Top =  1049.40

               PRECIP ELEVATION   STORAGE    INFLOW   RELEASE  WIND-DIRWIND-SPEED   VOLTAGE  BAT-LOAD
                   in        ft     ac-ft       cfs       cfs       deg       mph      volt      volt
              Ccp-Rev   Ccp-Rev   Ccp-Rev  Rev-Regi  Rev-Regi   Ccp-Rev   Ccp-Rev   Ccp-Rev   Ccp-Rev
(US/Central)
06/19 00:00      0.00   1042.16    124394       239       771      ----      ----     13.53     13.44
06/19 01:00      0.00   1042.15    124332       467       771      ----      ----     13.53     13.44
06/19 02:00      0.30   1042.23    124835       771       772      ----      ----     13.53     13.44
06/19 03:00      0.13   1042.16    124394       924       772      ----      ----     13.53     13.44
06/19 04:00      0.07   1042.17    124457      1228       771      ----      ----     13.53     13.44
06/19 05:00      0.00   1042.17    124457      1152       771      ----      ----     13.53     13.44
06/19 06:00      0.00   1042.18    124520      1228       771      ----      ----     13.53     13.44
06/19 07:00      0.00   1042.18    124520      1228       771      ----      ----     13.53     13.44
06/19 08:00      0.00   1042.19    124583      1532       772      ----      ----     13.53     13.44
06/19 09:00      0.00   1042.20    124646      1533       772      ----      ----     13.53     13.44
06/19 10:00      0.00   1042.22    124772      1685       772      ----      ----     13.53     13.44
06/19 11:00      0.00   1042.23    124835      1533       772      ----      ----     13.53     13.44
06/19 12:00      0.00   1042.24    124898      1533       772      ----      ----     13.53     13.44
06/19 13:00      0.00   1042.24    124898      1229       772      ----      ----     13.53     13.44
06/19 14:00      0.00   1042.25    124960      1077       772      ----      ----     13.53     13.44
06/19 15:00      0.00   1042.25    124960       924       772      ----      ----     13.53     13.44
06/19 16:00      0.00   1042.25    124960       772       772      ----      ----     13.53     13.44
06/19 17:00      0.00   1042.25    124960       620       772      ----      ----     13.60     13.44
06/19 18:00      0.00   1042.24    124898       467       772      ----      ----     13.53     13.44
06/19 19:00      0.00   1042.24    124898       467       772      ----      ----     13.53     13.44
06/19 20:00      0.00   1042.23    124835       315       772      ----      ----     13.53     13.44
06/19 21:00      0.00   1042.23    124835       467       772      ----      ----     13.53     13.44
06/19 22:00      0.00   1042.22    124772       163       772      ----      ----     13.53     13.44
06/19 23:00      0.00   1042.21    124709      ----       772      ----      ----     13.53     13.44